createdAt,value
2019-01-05T06:33:43.957Z,1.03
2019-01-05T06:50:36.127Z,0.23
2019-01-05T06:54:03.122Z,0.50
2019-01-05T09:44:47.417Z,30.53
2019-01-05T09:52:40.230Z,29.57
2019-01-05T09:56:12.025Z,36.73
2019-01-05T09:59:36.397Z,33.70
2019-01-05T10:14:50.466Z,35.80
2019-01-05T10:18:24.403Z,40.63
2019-01-05T10:26:45.354Z,42.53
2019-01-05T10:28:58.706Z,37.80
2019-01-05T10:32:29.251Z,33.27
2019-01-05T10:39:39.843Z,35.30
2019-01-05T10:43:29.076Z,42.03
2019-01-05T10:47:03.891Z,37.33
2019-01-05T10:50:28.574Z,35.00
2019-01-05T10:53:59.142Z,36.67
2019-01-05T10:57:24.280Z,34.87
2019-01-05T11:00:43.406Z,37.87
2019-01-05T11:04:14.627Z,34.60
2019-01-05T11:07:39.118Z,32.17
2019-01-05T11:11:42.259Z,32.97
2019-01-05T11:15:18.010Z,35.87
2019-01-05T11:19:17.856Z,36.53
2019-01-05T11:23:22.697Z,37.40
2019-01-05T12:02:04.261Z,36.37
2019-01-05T12:05:36.330Z,29.93
2019-01-05T12:09:07.679Z,34.63
2019-01-05T12:12:10.363Z,30.20
2019-01-05T12:15:43.719Z,31.53
2019-01-05T12:27:23.253Z,32.70
2019-01-05T12:31:02.852Z,28.37
2019-01-05T12:35:17.073Z,29.27
2019-01-05T12:38:47.359Z,32.77
2019-01-05T12:42:15.494Z,30.03
2019-01-05T12:46:26.148Z,28.67
2019-01-05T12:53:45.184Z,27.90
2019-01-05T12:57:42.689Z,28.20
2019-01-05T13:00:48.731Z,26.50
2019-01-05T13:04:24.081Z,30.57
2019-01-05T13:08:12.231Z,26.83
2019-01-05T13:12:06.056Z,26.03
2019-01-05T13:16:06.335Z,32.27
2019-01-05T13:19:13.783Z,29.50
2019-01-05T13:22:28.938Z,31.47
2019-01-05T13:26:12.111Z,28.10
2019-01-05T13:29:51.072Z,28.33
2019-01-05T13:33:29.155Z,24.63
2019-01-05T13:36:59.923Z,25.17
2019-01-05T13:40:28.164Z,27.77
2019-01-05T13:47:50.532Z,26.63
2019-01-05T13:51:34.190Z,28.13
2019-01-05T13:54:50.703Z,24.07
2019-01-05T13:57:46.995Z,28.13
2019-01-05T14:55:10.648Z,25.43
2019-01-05T14:58:02.969Z,20.13
2019-01-05T15:08:01.073Z,20.20
2019-01-05T15:08:38.904Z,18.20
2019-01-05T15:11:38.749Z,16.30
2019-01-05T15:56:44.992Z,98.03
2019-01-05T16:03:01.609Z,6.70
2019-01-05T16:06:02.565Z,396.80
2019-01-05T16:08:50.152Z,432.57
2019-01-05T16:14:57.253Z,359.17
2019-01-05T16:22:47.482Z,179.20
2019-01-05T16:24:45.109Z,153.47
2019-01-05T16:27:32.245Z,138.57
2019-01-05T16:30:19.081Z,112.10
2019-01-05T16:33:14.163Z,145.60
2019-01-05T16:46:47.521Z,144.63
2019-01-05T16:49:50.406Z,267.80
2019-01-05T16:52:54.099Z,164.80
2019-01-05T16:55:51.672Z,41.70
2019-01-05T16:58:43.297Z,46.57
2019-01-05T17:01:31.196Z,76.73
2019-01-05T17:04:18.221Z,107.23
2019-01-05T17:07:09.941Z,25.90
2019-01-05T17:09:58.631Z,0.50
2019-01-05T17:12:59.063Z,0.47
2019-01-05T17:15:59.371Z,0.63
2019-01-05T17:18:46.304Z,0.97
2019-01-05T17:21:58.050Z,0.70
2019-01-05T17:25:10.957Z,83.50
2019-01-05T17:34:21.902Z,0.40
2019-01-05T17:37:26.163Z,27.30
2019-01-05T17:41:05.166Z,55.67
2019-01-05T17:50:33.703Z,0.20
2019-01-05T17:53:23.222Z,0.90
2019-01-05T17:56:31.788Z,14.93
2019-01-05T18:02:35.314Z,0.43
2019-01-05T18:11:08.761Z,0.27
2019-01-05T18:14:42.036Z,0.97
2019-01-05T18:21:08.500Z,0.20
2019-01-05T18:24:10.975Z,0.30
2019-01-05T18:30:45.610Z,0.43
2019-01-05T18:41:04.453Z,0.37
2019-01-05T18:53:01.331Z,0.30
2019-01-05T19:01:13.721Z,0.10
2019-01-05T19:04:26.458Z,0.30
2019-01-05T20:54:54.602Z,0.10
2019-01-05T20:58:18.713Z,47.50
2019-01-05T21:08:30.341Z,1.10
2019-01-05T21:11:12.226Z,0.20
2019-01-05T21:17:05.004Z,0.00
2019-01-05T21:29:02.553Z,0.15
2019-01-05T21:34:51.280Z,0.40
2019-01-05T21:37:59.189Z,0.20
2019-01-05T21:40:47.777Z,0.27
2019-01-05T21:43:58.942Z,0.53
2019-01-05T21:47:36.912Z,0.33
2019-01-05T21:50:37.797Z,0.37
2019-01-05T21:53:45.585Z,0.47
2019-01-05T21:56:33.103Z,0.45
2019-01-05T21:59:53.527Z,0.68
2019-01-05T22:09:25.396Z,1.32
2019-01-05T22:12:13.957Z,0.65
2019-01-05T22:15:57.819Z,5.60
2019-01-05T22:19:08.328Z,1.72
2019-01-05T22:22:51.213Z,0.40
2019-01-05T22:25:30.200Z,0.45
2019-01-05T22:28:14.248Z,3.20
2019-01-05T22:31:28.380Z,0.50
2019-01-05T22:34:19.696Z,0.33
2019-01-05T22:37:20.284Z,2.20
2019-01-05T22:40:08.970Z,1.98
2019-01-05T22:52:22.158Z,0.00
2019-01-05T23:01:57.113Z,0.70
2019-01-05T23:04:58.054Z,1.05
2019-01-05T23:08:12.245Z,0.33
2019-01-05T23:11:42.483Z,0.50
2019-01-05T23:13:57.684Z,1.12
